CheckWX is a tool to help pilots better visualize weather data.  It is not intended as a substitute for an official pre-flight weather briefing.

12:23:25 UTC

DGAA TAF
Kotoka International Airport
Accra, Ghana
TAF DGAA 212300Z 2200/2306 27007KT CAVOK TEMPO 2206/2209 5000 BR BECMG 2211/2213 19014KT TEMPO 2218/2222 TS SCT020CB

Mar-22@
00:00 UTC

Mar-22 @ 00:00 UTC

Mar-22@
11:00 UTC

Mar-22 @ 11:00 UTC

TAF DGAA 212300Z 2200/2306 27007KT CAVOK

Expired

Wind
  • 270° at 7 KTS
Conditions
No significant weather
Cloud Levels
  • No significant clouds

Mar-22@
06:00 UTC

Mar-22 @ 06:00 UTC

Mar-22@
09:00 UTC

Mar-22 @ 09:00 UTC

TEMPO 2206/2209 5000 BR

Expired

Conditions
Mist

Mar-22@
11:00 UTC

Mar-22 @ 11:00 UTC

Mar-23@
06:00 UTC

Mar-23 @ 06:00 UTC

BECMG 2211/2213 19014KT

Becoming

Becoming Conditions expected by Fri, Mar 22, 2019 @ 13:00 UTC

Wind
  • 190° at 14 KTS
Conditions
No significant weather
Cloud Levels
  • No significant clouds

Mar-22@
18:00 UTC

Mar-22 @ 18:00 UTC

Mar-22@
22:00 UTC

Mar-22 @ 22:00 UTC

TEMPO 2218/2222 TS SCT020CB

Temporary

Temporary Changes expected for less than half the time period

Conditions
Thunderstorm
Cloud Levels
  • Scattered at 2,000' AGL